createdAt,value
2022-08-17T00:02:42.895Z,993.34
2022-08-17T00:08:29.804Z,993.24
2022-08-17T00:14:15.270Z,993.16
2022-08-17T00:19:58.846Z,993.13
2022-08-17T00:25:42.794Z,993.05
2022-08-17T00:31:26.098Z,993.14
2022-08-17T00:37:09.643Z,993.04
2022-08-17T00:42:53.235Z,992.97
2022-08-17T00:48:36.661Z,993.09
2022-08-17T00:54:23.010Z,993.05
2022-08-17T01:00:09.684Z,993.12
2022-08-17T01:05:55.670Z,993.02
2022-08-17T01:11:39.846Z,992.91
2022-08-17T01:17:23.450Z,992.92
2022-08-17T01:23:06.762Z,992.88
2022-08-17T01:28:55.949Z,992.87
2022-08-17T01:34:50.387Z,992.92
2022-08-17T01:40:35.160Z,993.03
2022-08-17T01:46:21.641Z,993.16
2022-08-17T01:52:10.356Z,993.81
2022-08-17T01:57:53.833Z,993.68
2022-08-17T02:03:38.381Z,993.74
2022-08-17T02:09:25.770Z,993.74
2022-08-17T02:15:13.418Z,993.68
2022-08-17T02:21:00.215Z,993.75
2022-08-17T02:26:44.345Z,993.74
2022-08-17T02:32:29.345Z,993.66
2022-08-17T02:38:12.706Z,993.65
2022-08-17T02:43:56.191Z,993.65
2022-08-17T02:49:39.578Z,993.52
2022-08-17T02:55:29.763Z,993.38
2022-08-17T03:01:12.983Z,993.36
2022-08-17T03:06:57.896Z,993.23
2022-08-17T03:12:42.473Z,993.15
2022-08-17T03:18:27.280Z,993.12
2022-08-17T03:24:11.311Z,993.17
2022-08-17T03:29:59.759Z,993.21
2022-08-17T03:35:43.253Z,993.31
2022-08-17T03:41:26.682Z,993.48
2022-08-17T03:47:10.294Z,993.61
2022-08-17T03:52:53.712Z,993.84
2022-08-17T03:58:37.050Z,993.93
2022-08-17T04:04:26.174Z,993.97
2022-08-17T04:10:11.789Z,994.04
2022-08-17T04:15:55.102Z,993.95
2022-08-17T04:21:38.398Z,993.94
2022-08-17T04:27:21.798Z,993.85
2022-08-17T04:33:08.392Z,993.84
2022-08-17T04:38:51.614Z,993.85
2022-08-17T04:44:38.855Z,993.83
2022-08-17T04:50:22.376Z,993.82
2022-08-17T04:56:05.759Z,993.87
2022-08-17T05:01:53.215Z,993.91
2022-08-17T05:07:36.734Z,993.86
2022-08-17T05:13:21.530Z,993.84
2022-08-17T05:19:05.130Z,993.89
2022-08-17T05:24:55.567Z,993.83
2022-08-17T05:30:45.100Z,993.93
2022-08-17T05:36:43.782Z,993.97
2022-08-17T05:42:27.258Z,994.08
2022-08-17T05:48:12.127Z,994.2
2022-08-17T05:54:01.463Z,994.27
2022-08-17T05:59:50.415Z,994.22
2022-08-17T06:05:42.329Z,994.37
2022-08-17T06:11:31.739Z,994.4
2022-08-17T06:17:22.012Z,994.48
2022-08-17T06:23:09.073Z,994.5
2022-08-17T06:28:53.631Z,994.81
2022-08-17T06:34:38.406Z,994.91
2022-08-17T06:40:29.252Z,994.73
2022-08-17T06:46:17.396Z,994.41
2022-08-17T06:52:03.027Z,994.26
2022-08-17T06:57:48.391Z,994.13
2022-08-17T07:03:34.987Z,994.16
2022-08-17T07:09:21.155Z,994.06
2022-08-17T07:15:08.708Z,994.18
2022-08-17T07:20:55.509Z,994.25
2022-08-17T07:26:39.809Z,994.25
2022-08-17T07:32:25.470Z,994.27
2022-08-17T07:38:24.612Z,994.28
2022-08-17T07:44:15.926Z,994.27
2022-08-17T07:49:59.378Z,994.49
2022-08-17T07:55:42.764Z,994.58
2022-08-17T08:01:39.772Z,994.57
2022-08-17T08:07:29.234Z,994.58
2022-08-17T08:13:15.450Z,994.51
2022-08-17T08:19:00.540Z,994.49
2022-08-17T08:24:51.199Z,994.49
2022-08-17T08:30:35.476Z,994.58
2022-08-17T08:36:56.476Z,994.7
2022-08-17T08:42:34.754Z,994.88
2022-08-17T08:48:46.405Z,995.08
2022-08-17T08:54:36.398Z,995.34
2022-08-17T09:00:20.736Z,995.42
2022-08-17T09:06:28.637Z,995.39
2022-08-17T09:12:23.795Z,995.33
2022-08-17T09:18:59.742Z,995.17
2022-08-17T09:24:21.863Z,995.18
2022-08-17T09:30:07.228Z,995.27
2022-08-17T09:35:54.791Z,995.24
2022-08-17T09:41:48.644Z,995.18
2022-08-17T09:47:35.235Z,995.27
2022-08-17T09:53:18.660Z,995.31
2022-08-17T09:59:12.009Z,995.45
2022-08-17T10:04:59.686Z,995.51
2022-08-17T10:10:56.419Z,995.59
2022-08-17T10:16:44.878Z,995.6
2022-08-17T10:22:38.047Z,995.55
2022-08-17T10:28:30.482Z,995.63
2022-08-17T10:34:29.167Z,995.67
2022-08-17T10:40:34.186Z,995.78
2022-08-17T10:46:30.729Z,995.72
2022-08-17T10:52:26.204Z,995.66
2022-08-17T10:58:20.819Z,995.7
2022-08-17T11:04:08.679Z,995.77
2022-08-17T11:10:00.738Z,995.82
2022-08-17T11:15:51.863Z,995.66
2022-08-17T11:21:49.236Z,995.59
2022-08-17T11:27:33.870Z,995.55
2022-08-17T11:33:28.469Z,995.49
2022-08-17T11:39:23.611Z,995.59
2022-08-17T11:45:19.534Z,995.61
2022-08-17T11:51:16.970Z,995.48
2022-08-17T11:57:02.148Z,995.48
2022-08-17T12:02:49.381Z,995.48
2022-08-17T12:08:33.578Z,995.43
2022-08-17T12:14:29.471Z,995.49
2022-08-17T12:20:26.867Z,995.58
2022-08-17T12:26:12.602Z,995.59
2022-08-17T12:31:56.566Z,995.56
2022-08-17T12:37:44.807Z,995.45
2022-08-17T12:43:29.012Z,995.47
2022-08-17T12:49:20.683Z,995.51
2022-08-17T12:55:05.736Z,995.44
2022-08-17T13:00:51.543Z,995.39
2022-08-17T13:06:36.279Z,995.3
2022-08-17T13:12:24.772Z,995.16
2022-08-17T13:18:13.907Z,995.1
2022-08-17T13:24:02.037Z,995.18
2022-08-17T13:29:54.056Z,995.24
2022-08-17T13:35:50.704Z,995.28
2022-08-17T13:41:38.520Z,995.25
2022-08-17T13:47:22.163Z,995.25
2022-08-17T13:53:10.461Z,995.28
2022-08-17T13:58:58.288Z,995.25
2022-08-17T14:04:43.280Z,995.23
2022-08-17T14:10:28.998Z,995.26
2022-08-17T14:16:14.167Z,995.31
2022-08-17T14:21:58.829Z,995.39
2022-08-17T14:27:52.034Z,995.51
2022-08-17T14:33:38.322Z,995.43
2022-08-17T14:39:21.844Z,995.44
2022-08-17T14:45:07.470Z,995.5
2022-08-17T14:51:06.106Z,995.49
2022-08-17T14:56:57.018Z,995.34
2022-08-17T15:02:56.038Z,995.31
2022-08-17T15:08:39.586Z,995.24
2022-08-17T15:14:23.722Z,995.32
2022-08-17T15:20:14.809Z,995.27
2022-08-17T15:25:58.771Z,995.29
2022-08-17T15:31:42.678Z,995.19
2022-08-17T15:37:26.162Z,995.16
2022-08-17T15:43:11.392Z,995.29
2022-08-17T15:48:55.839Z,995.32
2022-08-17T15:54:39.907Z,995.25
2022-08-17T16:00:29.167Z,995.21
2022-08-17T16:06:18.716Z,995.27
2022-08-17T16:12:06.966Z,995.39
2022-08-17T16:17:50.571Z,995.36
2022-08-17T16:23:34.471Z,995.44
2022-08-17T16:29:17.776Z,995.44
2022-08-17T16:35:01.044Z,995.48
2022-08-17T16:40:44.367Z,995.51
2022-08-17T16:46:27.864Z,995.51
2022-08-17T16:52:12.239Z,995.53
2022-08-17T16:58:00.559Z,995.54
2022-08-17T17:03:45.023Z,995.7
2022-08-17T17:09:29.560Z,995.67
2022-08-17T17:15:15.685Z,995.68
2022-08-17T17:21:06.074Z,995.69
2022-08-17T17:27:02.388Z,995.41
2022-08-17T17:32:53.221Z,995.53
2022-08-17T17:38:41.103Z,995.31
2022-08-17T17:44:26.403Z,995.36
2022-08-17T17:50:10.422Z,995.41
2022-08-17T17:56:00.443Z,995.44
2022-08-17T18:01:47.246Z,995.4
2022-08-17T18:07:35.176Z,995.28
2022-08-17T18:13:27.603Z,995.4
2022-08-17T18:19:11.984Z,995.46
2022-08-17T18:24:56.066Z,995.51
2022-08-17T18:30:39.563Z,995.5
2022-08-17T18:36:31.578Z,995.65
2022-08-17T18:42:20.647Z,995.7
2022-08-17T18:48:05.499Z,995.77
2022-08-17T18:53:53.719Z,995.71
2022-08-17T18:59:41.888Z,995.79
2022-08-17T19:05:34.622Z,995.87
2022-08-17T19:11:21.319Z,996.11
2022-08-17T19:17:06.889Z,996.21
2022-08-17T19:22:55.098Z,996.3
2022-08-17T19:28:49.030Z,996.48
2022-08-17T19:34:35.543Z,996.54
2022-08-17T19:40:51.466Z,996.66
2022-08-17T19:46:36.914Z,996.78
2022-08-17T19:52:40.932Z,996.85
2022-08-17T19:58:30.147Z,996.77
2022-08-17T20:04:20.339Z,996.8
2022-08-17T20:10:06.180Z,996.92
2022-08-17T20:15:49.496Z,996.89
2022-08-17T20:21:36.463Z,996.88
2022-08-17T20:27:21.390Z,996.78
2022-08-17T20:33:18.987Z,996.84
2022-08-17T20:39:02.450Z,996.81
2022-08-17T20:44:46.307Z,996.84
2022-08-17T20:50:32.856Z,996.9
2022-08-17T20:56:21.299Z,996.98
2022-08-17T21:02:18.272Z,997.09
2022-08-17T21:08:07.952Z,997.1
2022-08-17T21:14:02.588Z,997.21
2022-08-17T21:20:12.771Z,997.16
2022-08-17T21:26:03.890Z,997.19
2022-08-17T21:31:48.538Z,997.24
2022-08-17T21:37:37.978Z,997.28
2022-08-17T21:43:26.155Z,997.32
2022-08-17T21:49:15.194Z,997.24
2022-08-17T21:55:01.222Z,997.15
2022-08-17T22:00:44.975Z,997.15
2022-08-17T22:06:30.850Z,997.14
2022-08-17T22:12:17.581Z,997.15
2022-08-17T22:18:01.400Z,997.05
2022-08-17T22:23:49.744Z,997.08
2022-08-17T22:29:56.934Z,997.1
2022-08-17T22:35:42.253Z,997.12
2022-08-17T22:41:37.349Z,997.01
2022-08-17T22:47:31.473Z,996.99
2022-08-17T22:53:19.447Z,997.1
2022-08-17T22:59:02.712Z,997.22
2022-08-17T23:04:47.328Z,997.19
2022-08-17T23:10:31.352Z,997.27
2022-08-17T23:16:14.794Z,997.24
2022-08-17T23:21:59.296Z,997.15
2022-08-17T23:27:43.898Z,997.2
2022-08-17T23:33:29.438Z,997.22
2022-08-17T23:39:12.730Z,997.27
2022-08-17T23:45:06.654Z,997.26
2022-08-17T23:50:50.058Z,997.21
2022-08-17T23:56:33.476Z,997.23
